sensor_id;sensor_type;location;lat;lon;timestamp;temperature;humidity
63397;SHT31;49532;45.068;38.928;2022-08-11T03:50:21;26.07;58.14
63397;SHT31;49532;45.068;38.928;2022-08-11T04:06:52;25.87;59.12
63397;SHT31;49532;45.068;38.928;2022-08-11T04:17:50;25.79;59.48
63397;SHT31;49532;45.068;38.928;2022-08-11T04:34:36;25.59;58.40
63397;SHT31;49532;45.068;38.928;2022-08-11T04:51:14;25.46;58.34
63397;SHT31;49532;45.068;38.928;2022-08-11T04:56:43;25.45;58.53
63397;SHT31;49532;45.068;38.928;2022-08-11T05:13:08;25.56;58.98
63397;SHT31;49532;45.068;38.928;2022-08-11T05:18:28;25.59;59.22
63397;SHT31;49532;45.068;38.928;2022-08-11T05:24:34;25.67;59.03
63397;SHT31;49532;45.068;38.928;2022-08-11T05:30:04;25.76;58.97
63397;SHT31;49532;45.068;38.928;2022-08-11T05:35:42;25.83;58.88
63397;SHT31;49532;45.068;38.928;2022-08-11T05:40:48;25.94;58.95
63397;SHT31;49532;45.068;38.928;2022-08-11T05:46:08;26.09;58.71
63397;SHT31;49532;45.068;38.928;2022-08-11T05:51:40;26.22;57.69
63397;SHT31;49532;45.068;38.928;2022-08-11T05:57:00;26.13;58.03
63397;SHT31;49532;45.068;38.928;2022-08-11T06:02:04;26.09;58.03
63397;SHT31;49532;45.068;38.928;2022-08-11T06:07:07;26.05;57.96
63397;SHT31;49532;45.068;38.928;2022-08-11T06:12:22;26.02;58.39
63397;SHT31;49532;45.068;38.928;2022-08-11T06:17:25;26.01;58.75
63397;SHT31;49532;45.068;38.928;2022-08-11T06:22:27;26.14;59.05
63397;SHT31;49532;45.068;38.928;2022-08-11T06:27:33;26.21;58.92
63397;SHT31;49532;45.068;38.928;2022-08-11T06:32:35;26.25;58.21
63397;SHT31;49532;45.068;38.928;2022-08-11T06:37:43;26.29;58.30
63397;SHT31;49532;45.068;38.928;2022-08-11T06:42:54;26.47;58.28
63397;SHT31;49532;45.068;38.928;2022-08-11T06:47:56;26.66;58.22
63397;SHT31;49532;45.068;38.928;2022-08-11T06:53:07;26.85;57.89
63397;SHT31;49532;45.068;38.928;2022-08-11T06:58:16;26.92;57.28
63397;SHT31;49532;45.068;38.928;2022-08-11T07:03:42;26.99;56.83
63397;SHT31;49532;45.068;38.928;2022-08-11T07:14:30;27.20;56.51
63397;SHT31;49532;45.068;38.928;2022-08-11T07:19:56;27.29;56.46
63397;SHT31;49532;45.068;38.928;2022-08-11T07:25:17;27.26;56.19
63397;SHT31;49532;45.068;38.928;2022-08-11T07:30:45;27.29;56.16
63397;SHT31;49532;45.068;38.928;2022-08-11T07:35:52;27.29;56.03
63397;SHT31;49532;45.068;38.928;2022-08-11T07:40:57;27.34;56.75
63397;SHT31;49532;45.068;38.928;2022-08-11T07:46:02;27.41;57.13
63397;SHT31;49532;45.068;38.928;2022-08-11T07:51:24;27.54;57.42
63397;SHT31;49532;45.068;38.928;2022-08-11T07:56:45;27.62;57.14
63397;SHT31;49532;45.068;38.928;2022-08-11T08:01:47;27.85;57.03
63397;SHT31;49532;45.068;38.928;2022-08-11T08:07:07;28.06;57.00
63397;SHT31;49532;45.068;38.928;2022-08-11T08:12:27;28.20;56.67
63397;SHT31;49532;45.068;38.928;2022-08-11T08:17:47;28.35;56.13
63397;SHT31;49532;45.068;38.928;2022-08-11T08:22:57;28.56;56.27
63397;SHT31;49532;45.068;38.928;2022-08-11T08:28:04;28.71;54.95
63397;SHT31;49532;45.068;38.928;2022-08-11T08:33:07;28.87;55.30
63397;SHT31;49532;45.068;38.928;2022-08-11T08:38:08;29.08;54.51
63397;SHT31;49532;45.068;38.928;2022-08-11T08:43:13;29.22;54.20
63397;SHT31;49532;45.068;38.928;2022-08-11T08:48:17;29.31;54.56
63397;SHT31;49532;45.068;38.928;2022-08-11T08:53:26;29.24;55.40
63397;SHT31;49532;45.068;38.928;2022-08-11T08:58:34;29.16;56.05
63397;SHT31;49532;45.068;38.928;2022-08-11T09:03:36;29.08;56.85
63397;SHT31;49532;45.068;38.928;2022-08-11T09:08:38;29.16;56.29
63397;SHT31;49532;45.068;38.928;2022-08-11T09:13:41;29.41;56.52
63397;SHT31;49532;45.068;38.928;2022-08-11T09:18:45;29.61;55.37
63397;SHT31;49532;45.068;38.928;2022-08-11T09:23:46;29.72;54.66
63397;SHT31;49532;45.068;38.928;2022-08-11T09:29:09;29.74;54.46
63397;SHT31;49532;45.068;38.928;2022-08-11T09:34:13;29.73;54.80
63397;SHT31;49532;45.068;38.928;2022-08-11T09:39:14;29.77;55.09
63397;SHT31;49532;45.068;38.928;2022-08-11T09:44:36;29.89;54.66
63397;SHT31;49532;45.068;38.928;2022-08-11T09:49:51;30.31;53.88
63397;SHT31;49532;45.068;38.928;2022-08-11T09:54:54;30.65;53.58
63397;SHT31;49532;45.068;38.928;2022-08-11T09:59:56;30.92;53.43
63397;SHT31;49532;45.068;38.928;2022-08-11T10:04:57;31.32;52.54
63397;SHT31;49532;45.068;38.928;2022-08-11T10:10:19;31.39;51.87
63397;SHT31;49532;45.068;38.928;2022-08-11T10:15:23;31.23;52.14
63397;SHT31;49532;45.068;38.928;2022-08-11T10:20:35;31.25;52.50
63397;SHT31;49532;45.068;38.928;2022-08-11T10:25:37;31.25;52.56
63397;SHT31;49532;45.068;38.928;2022-08-11T10:30:58;31.56;52.20
63397;SHT31;49532;45.068;38.928;2022-08-11T10:36:18;31.59;51.31
63397;SHT31;49532;45.068;38.928;2022-08-11T10:41:20;31.70;51.28
63397;SHT31;49532;45.068;38.928;2022-08-11T10:46:48;31.67;51.06
63397;SHT31;49532;45.068;38.928;2022-08-11T10:52:08;31.69;50.83
63397;SHT31;49532;45.068;38.928;2022-08-11T10:57:29;31.78;51.18
63397;SHT31;49532;45.068;38.928;2022-08-11T11:02:49;31.77;51.51
63397;SHT31;49532;45.068;38.928;2022-08-11T11:07:57;31.73;51.79
63397;SHT31;49532;45.068;38.928;2022-08-11T11:13:00;31.82;51.39
63397;SHT31;49532;45.068;38.928;2022-08-11T11:18:24;32.07;50.80
63397;SHT31;49532;45.068;38.928;2022-08-11T11:23:40;32.15;51.08
63397;SHT31;49532;45.068;38.928;2022-08-11T11:39:38;32.49;49.65
63397;SHT31;49532;45.068;38.928;2022-08-11T11:44:43;32.63;49.18
63397;SHT31;49532;45.068;38.928;2022-08-11T11:49:46;32.56;49.06
63397;SHT31;49532;45.068;38.928;2022-08-11T11:54:52;32.58;49.00
63397;SHT31;49532;45.068;38.928;2022-08-11T11:59:55;32.45;48.99
63397;SHT31;49532;45.068;38.928;2022-08-11T12:05:15;32.28;49.13
63397;SHT31;49532;45.068;38.928;2022-08-11T12:10:16;32.21;48.96
63397;SHT31;49532;45.068;38.928;2022-08-11T12:15:18;32.19;49.58
63397;SHT31;49532;45.068;38.928;2022-08-11T12:20:19;32.11;49.29
63397;SHT31;49532;45.068;38.928;2022-08-11T12:25:20;32.09;49.96
63397;SHT31;49532;45.068;38.928;2022-08-11T12:30:42;32.08;49.24
63397;SHT31;49532;45.068;38.928;2022-08-11T12:35:52;32.11;49.71
63397;SHT31;49532;45.068;38.928;2022-08-11T12:40:56;32.09;49.38
63397;SHT31;49532;45.068;38.928;2022-08-11T12:46:22;32.09;49.43
63397;SHT31;49532;45.068;38.928;2022-08-11T12:51:25;32.14;49.23
63397;SHT31;49532;45.068;38.928;2022-08-11T12:56:49;32.18;48.56
63397;SHT31;49532;45.068;38.928;2022-08-11T13:02:15;32.32;48.49
63397;SHT31;49532;45.068;38.928;2022-08-11T13:07:36;32.32;47.88
63397;SHT31;49532;45.068;38.928;2022-08-11T13:12:41;32.36;47.84
63397;SHT31;49532;45.068;38.928;2022-08-11T13:17:52;32.40;46.83
63397;SHT31;49532;45.068;38.928;2022-08-11T13:22:56;32.39;46.72
63397;SHT31;49532;45.068;38.928;2022-08-11T13:27:59;32.35;47.17
63397;SHT31;49532;45.068;38.928;2022-08-11T13:33:03;32.29;47.52
63397;SHT31;49532;45.068;38.928;2022-08-11T13:38:05;32.21;47.89
63397;SHT31;49532;45.068;38.928;2022-08-11T13:43:07;32.19;47.95
63397;SHT31;49532;45.068;38.928;2022-08-11T13:48:11;32.11;48.15
63397;SHT31;49532;45.068;38.928;2022-08-11T13:53:15;32.14;47.57
63397;SHT31;49532;45.068;38.928;2022-08-11T13:58:17;32.09;47.27
63397;SHT31;49532;45.068;38.928;2022-08-11T14:03:23;32.14;47.66
63397;SHT31;49532;45.068;38.928;2022-08-11T14:08:27;32.14;47.58
63397;SHT31;49532;45.068;38.928;2022-08-11T14:13:29;32.05;47.39
63397;SHT31;49532;45.068;38.928;2022-08-11T14:18:44;31.90;47.20
63397;SHT31;49532;45.068;38.928;2022-08-11T14:23:47;31.77;47.48
63397;SHT31;49532;45.068;38.928;2022-08-11T14:29:00;31.66;47.48
63397;SHT31;49532;45.068;38.928;2022-08-11T14:34:05;31.57;47.69
63397;SHT31;49532;45.068;38.928;2022-08-11T14:39:10;31.50;47.77
63397;SHT31;49532;45.068;38.928;2022-08-11T14:44:34;31.40;48.18
63397;SHT31;49532;45.068;38.928;2022-08-11T14:49:56;31.33;48.00
63397;SHT31;49532;45.068;38.928;2022-08-11T14:54:58;31.29;48.10
63397;SHT31;49532;45.068;38.928;2022-08-11T15:00:18;31.22;47.86
63397;SHT31;49532;45.068;38.928;2022-08-11T15:05:20;31.16;47.72
63397;SHT31;49532;45.068;38.928;2022-08-11T15:10:21;31.10;47.93
63397;SHT31;49532;45.068;38.928;2022-08-11T15:15:24;31.06;48.05
63397;SHT31;49532;45.068;38.928;2022-08-11T15:20:44;31.03;48.15
63397;SHT31;49532;45.068;38.928;2022-08-11T15:26:09;30.99;48.24
63397;SHT31;49532;45.068;38.928;2022-08-11T15:31:12;30.88;48.64
63397;SHT31;49532;45.068;38.928;2022-08-11T15:36:29;30.78;50.25
63397;SHT31;49532;45.068;38.928;2022-08-11T15:42:13;30.64;51.64
63397;SHT31;49532;45.068;38.928;2022-08-11T15:47:55;30.44;53.63
63397;SHT31;49532;45.068;38.928;2022-08-11T15:53:01;30.30;54.99
63397;SHT31;49532;45.068;38.928;2022-08-11T15:58:06;30.17;54.68
63397;SHT31;49532;45.068;38.928;2022-08-11T16:03:28;30.06;54.75
63397;SHT31;49532;45.068;38.928;2022-08-11T16:08:50;29.92;54.92
63397;SHT31;49532;45.068;38.928;2022-08-11T16:13:56;29.77;54.87
63397;SHT31;49532;45.068;38.928;2022-08-11T16:19:17;29.66;55.52
63397;SHT31;49532;45.068;38.928;2022-08-11T16:24:19;29.55;56.45
63397;SHT31;49532;45.068;38.928;2022-08-11T16:29:22;29.41;56.86
63397;SHT31;49532;45.068;38.928;2022-08-11T16:34:25;29.26;57.36
63397;SHT31;49532;45.068;38.928;2022-08-11T16:39:46;29.12;57.84
63397;SHT31;49532;45.068;38.928;2022-08-11T16:44:47;29.03;58.21
63397;SHT31;49532;45.068;38.928;2022-08-11T16:50:08;28.90;58.99
63397;SHT31;49532;45.068;38.928;2022-08-11T16:55:09;28.81;59.10
63397;SHT31;49532;45.068;38.928;2022-08-11T17:00:14;28.71;59.36
63397;SHT31;49532;45.068;38.928;2022-08-11T17:05:18;28.68;59.56
63397;SHT31;49532;45.068;38.928;2022-08-11T17:10:43;28.61;59.74
63397;SHT31;49532;45.068;38.928;2022-08-11T17:16:07;28.54;60.02
63397;SHT31;49532;45.068;38.928;2022-08-11T17:21:29;28.46;60.32
63397;SHT31;49532;45.068;38.928;2022-08-11T17:26:42;28.43;60.52
63397;SHT31;49532;45.068;38.928;2022-08-11T17:31:59;28.42;60.56
63397;SHT31;49532;45.068;38.928;2022-08-11T17:37:20;28.40;60.55
63397;SHT31;49532;45.068;38.928;2022-08-11T17:42:26;28.36;61.37
63397;SHT31;49532;45.068;38.928;2022-08-11T17:47:47;28.32;61.68
63397;SHT31;49532;45.068;38.928;2022-08-11T17:53:07;28.23;61.52
63397;SHT31;49532;45.068;38.928;2022-08-11T17:58:30;28.22;61.47
63397;SHT31;49532;45.068;38.928;2022-08-11T18:03:50;28.22;61.70
63397;SHT31;49532;45.068;38.928;2022-08-11T18:08:52;28.19;61.89
63397;SHT31;49532;45.068;38.928;2022-08-11T18:14:13;28.17;62.51
63397;SHT31;49532;45.068;38.928;2022-08-11T18:19:33;28.06;62.95
63397;SHT31;49532;45.068;38.928;2022-08-11T18:24:57;27.98;63.20
63397;SHT31;49532;45.068;38.928;2022-08-11T18:30:19;27.92;63.32
63397;SHT31;49532;45.068;38.928;2022-08-11T18:35:40;27.86;63.75
63397;SHT31;49532;45.068;38.928;2022-08-11T18:41:00;27.86;63.19
63397;SHT31;49532;45.068;38.928;2022-08-11T18:46:21;27.77;64.28
63397;SHT31;49532;45.068;38.928;2022-08-11T18:51:48;27.68;65.12
63397;SHT31;49532;45.068;38.928;2022-08-11T18:57:09;27.62;65.45
63397;SHT31;49532;45.068;38.928;2022-08-11T19:02:31;27.57;66.07
63397;SHT31;49532;45.068;38.928;2022-08-11T19:07:54;27.57;66.27
63397;SHT31;49532;45.068;38.928;2022-08-11T19:13:14;27.55;66.19
63397;SHT31;49532;45.068;38.928;2022-08-11T19:18:35;27.53;66.44
63397;SHT31;49532;45.068;38.928;2022-08-11T19:23:56;27.43;66.45
63397;SHT31;49532;45.068;38.928;2022-08-11T19:29:18;27.38;66.49
63397;SHT31;49532;45.068;38.928;2022-08-11T19:34:39;27.36;66.90
63397;SHT31;49532;45.068;38.928;2022-08-11T19:40:04;27.23;67.87
63397;SHT31;49532;45.068;38.928;2022-08-11T19:45:24;27.13;67.14
63397;SHT31;49532;45.068;38.928;2022-08-11T19:50:44;27.02;68.15
63397;SHT31;49532;45.068;38.928;2022-08-11T19:56:05;26.86;68.86
63397;SHT31;49532;45.068;38.928;2022-08-11T20:01:25;26.78;69.25
